sensor_id;sensor_type;location;lat;lon;timestamp;P1;durP1;ratioP1;P2;durP2;ratioP2
28613;SDS011;15806;53.548;9.964;2023-08-31T00:01:06;7.80;;;3.87;;
28613;SDS011;15806;53.548;9.964;2023-08-31T00:02:47;10.23;;;4.53;;
28613;SDS011;15806;53.548;9.964;2023-08-31T00:04:27;7.80;;;4.40;;
28613;SDS011;15806;53.548;9.964;2023-08-31T00:06:08;8.50;;;4.53;;
28613;SDS011;15806;53.548;9.964;2023-08-31T00:07:48;8.60;;;4.73;;
28613;SDS011;15806;53.548;9.964;2023-08-31T00:09:29;9.77;;;3.93;;
28613;SDS011;15806;53.548;9.964;2023-08-31T00:11:09;12.00;;;4.70;;
28613;SDS011;15806;53.548;9.964;2023-08-31T00:12:50;7.20;;;3.53;;
28613;SDS011;15806;53.548;9.964;2023-08-31T00:14:30;7.77;;;3.93;;
28613;SDS011;15806;53.548;9.964;2023-08-31T00:16:11;7.47;;;3.77;;
28613;SDS011;15806;53.548;9.964;2023-08-31T00:17:51;14.87;;;4.87;;
28613;SDS011;15806;53.548;9.964;2023-08-31T00:19:32;9.87;;;4.17;;
28613;SDS011;15806;53.548;9.964;2023-08-31T00:21:12;7.77;;;4.17;;
28613;SDS011;15806;53.548;9.964;2023-08-31T00:22:53;8.57;;;4.57;;
28613;SDS011;15806;53.548;9.964;2023-08-31T00:24:33;11.43;;;5.70;;
28613;SDS011;15806;53.548;9.964;2023-08-31T00:26:15;6.88;;;3.75;;
28613;SDS011;15806;53.548;9.964;2023-08-31T00:27:55;7.57;;;4.40;;
28613;SDS011;15806;53.548;9.964;2023-08-31T00:29:36;9.57;;;4.70;;
28613;SDS011;15806;53.548;9.964;2023-08-31T00:31:16;7.73;;;4.17;;
28613;SDS011;15806;53.548;9.964;2023-08-31T00:32:58;11.03;;;4.70;;
28613;SDS011;15806;53.548;9.964;2023-08-31T00:34:38;11.93;;;5.38;;
28613;SDS011;15806;53.548;9.964;2023-08-31T00:36:19;8.63;;;5.00;;
28613;SDS011;15806;53.548;9.964;2023-08-31T00:38:00;8.93;;;4.80;;
28613;SDS011;15806;53.548;9.964;2023-08-31T00:39:40;9.37;;;4.83;;
28613;SDS011;15806;53.548;9.964;2023-08-31T00:41:22;9.47;;;4.70;;
28613;SDS011;15806;53.548;9.964;2023-08-31T00:43:02;9.82;;;4.93;;
28613;SDS011;15806;53.548;9.964;2023-08-31T00:44:43;11.20;;;4.83;;
28613;SDS011;15806;53.548;9.964;2023-08-31T00:46:23;8.63;;;4.93;;
28613;SDS011;15806;53.548;9.964;2023-08-31T00:48:04;11.90;;;5.13;;
28613;SDS011;15806;53.548;9.964;2023-08-31T00:49:45;12.50;;;5.87;;
28613;SDS011;15806;53.548;9.964;2023-08-31T00:51:26;11.43;;;4.88;;
28613;SDS011;15806;53.548;9.964;2023-08-31T00:53:07;9.43;;;4.07;;
28613;SDS011;15806;53.548;9.964;2023-08-31T00:54:49;8.57;;;4.87;;
28613;SDS011;15806;53.548;9.964;2023-08-31T00:56:32;9.25;;;4.18;;
28613;SDS011;15806;53.548;9.964;2023-08-31T00:58:13;10.50;;;4.57;;
28613;SDS011;15806;53.548;9.964;2023-08-31T00:59:54;10.18;;;5.85;;
28613;SDS011;15806;53.548;9.964;2023-08-31T01:03:35;16.65;;;5.28;;
28613;SDS011;15806;53.548;9.964;2023-08-31T01:07:29;11.02;;;5.15;;
28613;SDS011;15806;53.548;9.964;2023-08-31T01:09:39;10.10;;;4.30;;
28613;SDS011;15806;53.548;9.964;2023-08-31T01:11:31;11.05;;;4.20;;
28613;SDS011;15806;53.548;9.964;2023-08-31T01:13:19;8.85;;;4.10;;
28613;SDS011;15806;53.548;9.964;2023-08-31T01:15:04;12.13;;;5.38;;
28613;SDS011;15806;53.548;9.964;2023-08-31T01:16:47;12.90;;;5.07;;
28613;SDS011;15806;53.548;9.964;2023-08-31T01:18:30;11.35;;;4.57;;
28613;SDS011;15806;53.548;9.964;2023-08-31T01:20:13;11.38;;;5.30;;
28613;SDS011;15806;53.548;9.964;2023-08-31T01:21:59;11.25;;;4.53;;
28613;SDS011;15806;53.548;9.964;2023-08-31T01:23:52;10.68;;;4.93;;
28613;SDS011;15806;53.548;9.964;2023-08-31T01:25:33;11.93;;;5.13;;
28613;SDS011;15806;53.548;9.964;2023-08-31T01:27:14;15.37;;;5.77;;
28613;SDS011;15806;53.548;9.964;2023-08-31T01:28:55;8.57;;;4.03;;
28613;SDS011;15806;53.548;9.964;2023-08-31T01:30:36;12.35;;;4.25;;
28613;SDS011;15806;53.548;9.964;2023-08-31T01:32:18;12.30;;;4.73;;
28613;SDS011;15806;53.548;9.964;2023-08-31T01:33:59;6.95;;;3.63;;
28613;SDS011;15806;53.548;9.964;2023-08-31T01:35:40;8.13;;;3.67;;
28613;SDS011;15806;53.548;9.964;2023-08-31T01:37:31;9.23;;;4.57;;
28613;SDS011;15806;53.548;9.964;2023-08-31T01:39:41;10.55;;;4.53;;
28613;SDS011;15806;53.548;9.964;2023-08-31T01:41:25;5.97;;;3.60;;
28613;SDS011;15806;53.548;9.964;2023-08-31T01:43:08;13.18;;;5.07;;
28613;SDS011;15806;53.548;9.964;2023-08-31T01:44:51;8.50;;;4.15;;
28613;SDS011;15806;53.548;9.964;2023-08-31T01:48:13;12.82;;;4.20;;
28613;SDS011;15806;53.548;9.964;2023-08-31T01:49:54;8.38;;;4.90;;
28613;SDS011;15806;53.548;9.964;2023-08-31T01:51:35;8.07;;;4.13;;
28613;SDS011;15806;53.548;9.964;2023-08-31T01:53:15;8.70;;;4.70;;
28613;SDS011;15806;53.548;9.964;2023-08-31T01:54:56;8.80;;;4.67;;
28613;SDS011;15806;53.548;9.964;2023-08-31T01:56:37;9.18;;;4.32;;
28613;SDS011;15806;53.548;9.964;2023-08-31T01:58:17;7.13;;;4.33;;
28613;SDS011;15806;53.548;9.964;2023-08-31T01:59:58;8.07;;;4.80;;
28613;SDS011;15806;53.548;9.964;2023-08-31T02:01:39;12.85;;;4.95;;
28613;SDS011;15806;53.548;9.964;2023-08-31T02:03:19;11.37;;;4.70;;
28613;SDS011;15806;53.548;9.964;2023-08-31T02:05:00;6.40;;;3.77;;
28613;SDS011;15806;53.548;9.964;2023-08-31T02:06:41;7.40;;;4.85;;
28613;SDS011;15806;53.548;9.964;2023-08-31T02:08:22;8.60;;;4.43;;
28613;SDS011;15806;53.548;9.964;2023-08-31T02:10:03;9.33;;;4.97;;
28613;SDS011;15806;53.548;9.964;2023-08-31T02:11:44;8.18;;;4.22;;
28613;SDS011;15806;53.548;9.964;2023-08-31T02:13:24;9.27;;;5.37;;
28613;SDS011;15806;53.548;9.964;2023-08-31T02:15:05;8.53;;;3.87;;
28613;SDS011;15806;53.548;9.964;2023-08-31T02:16:46;10.10;;;4.25;;
28613;SDS011;15806;53.548;9.964;2023-08-31T02:18:26;16.67;;;5.23;;
28613;SDS011;15806;53.548;9.964;2023-08-31T02:20:07;7.33;;;4.17;;
28613;SDS011;15806;53.548;9.964;2023-08-31T02:21:48;10.10;;;4.38;;
28613;SDS011;15806;53.548;9.964;2023-08-31T02:23:28;10.30;;;5.33;;
28613;SDS011;15806;53.548;9.964;2023-08-31T02:25:09;12.00;;;4.47;;
28613;SDS011;15806;53.548;9.964;2023-08-31T02:26:49;9.00;;;3.93;;
28613;SDS011;15806;53.548;9.964;2023-08-31T02:28:31;7.78;;;4.60;;
28613;SDS011;15806;53.548;9.964;2023-08-31T02:30:12;10.63;;;5.00;;
28613;SDS011;15806;53.548;9.964;2023-08-31T02:31:53;8.13;;;4.07;;
28613;SDS011;15806;53.548;9.964;2023-08-31T02:33:33;9.00;;;4.20;;
28613;SDS011;15806;53.548;9.964;2023-08-31T02:35:14;10.07;;;4.50;;
28613;SDS011;15806;53.548;9.964;2023-08-31T02:36:54;6.90;;;3.80;;
28613;SDS011;15806;53.548;9.964;2023-08-31T02:38:35;8.00;;;3.77;;
28613;SDS011;15806;53.548;9.964;2023-08-31T02:40:16;11.60;;;4.83;;
28613;SDS011;15806;53.548;9.964;2023-08-31T02:41:56;10.63;;;4.70;;
28613;SDS011;15806;53.548;9.964;2023-08-31T02:43:37;9.27;;;4.33;;
28613;SDS011;15806;53.548;9.964;2023-08-31T02:45:18;9.77;;;4.00;;
28613;SDS011;15806;53.548;9.964;2023-08-31T02:46:59;7.43;;;4.03;;
28613;SDS011;15806;53.548;9.964;2023-08-31T02:48:41;10.95;;;3.88;;
28613;SDS011;15806;53.548;9.964;2023-08-31T02:50:21;10.10;;;4.13;;
28613;SDS011;15806;53.548;9.964;2023-08-31T02:52:02;8.83;;;3.90;;
28613;SDS011;15806;53.548;9.964;2023-08-31T02:53:42;10.80;;;5.10;;
28613;SDS011;15806;53.548;9.964;2023-08-31T02:55:23;10.10;;;3.17;;
28613;SDS011;15806;53.548;9.964;2023-08-31T02:57:03;9.97;;;4.20;;
28613;SDS011;15806;53.548;9.964;2023-08-31T02:58:44;11.63;;;4.53;;
28613;SDS011;15806;53.548;9.964;2023-08-31T03:00:25;10.27;;;3.93;;
28613;SDS011;15806;53.548;9.964;2023-08-31T03:02:05;9.03;;;4.07;;
28613;SDS011;15806;53.548;9.964;2023-08-31T03:03:46;7.57;;;3.47;;
28613;SDS011;15806;53.548;9.964;2023-08-31T03:05:26;8.13;;;3.40;;
28613;SDS011;15806;53.548;9.964;2023-08-31T03:07:07;8.57;;;3.10;;
28613;SDS011;15806;53.548;9.964;2023-08-31T03:08:48;6.67;;;3.47;;
28613;SDS011;15806;53.548;9.964;2023-08-31T03:10:28;6.57;;;2.50;;
28613;SDS011;15806;53.548;9.964;2023-08-31T03:12:09;6.50;;;2.83;;
28613;SDS011;15806;53.548;9.964;2023-08-31T03:13:49;5.80;;;3.23;;
28613;SDS011;15806;53.548;9.964;2023-08-31T03:15:32;7.83;;;2.93;;
28613;SDS011;15806;53.548;9.964;2023-08-31T03:17:13;11.00;;;4.70;;
28613;SDS011;15806;53.548;9.964;2023-08-31T03:18:53;7.67;;;4.43;;
28613;SDS011;15806;53.548;9.964;2023-08-31T03:20:34;11.53;;;3.13;;
28613;SDS011;15806;53.548;9.964;2023-08-31T03:22:14;6.27;;;2.93;;
28613;SDS011;15806;53.548;9.964;2023-08-31T03:23:55;11.00;;;4.27;;
28613;SDS011;15806;53.548;9.964;2023-08-31T03:25:36;5.80;;;2.90;;
28613;SDS011;15806;53.548;9.964;2023-08-31T03:27:16;5.97;;;2.83;;
28613;SDS011;15806;53.548;9.964;2023-08-31T03:28:57;7.53;;;3.50;;
28613;SDS011;15806;53.548;9.964;2023-08-31T03:30:37;5.43;;;2.97;;
28613;SDS011;15806;53.548;9.964;2023-08-31T03:32:18;9.00;;;3.73;;
28613;SDS011;15806;53.548;9.964;2023-08-31T03:33:59;9.15;;;3.05;;
28613;SDS011;15806;53.548;9.964;2023-08-31T03:35:39;6.07;;;2.67;;
28613;SDS011;15806;53.548;9.964;2023-08-31T03:37:20;6.63;;;3.63;;
28613;SDS011;15806;53.548;9.964;2023-08-31T03:39:00;7.00;;;3.23;;
28613;SDS011;15806;53.548;9.964;2023-08-31T03:40:41;3.57;;;1.93;;
28613;SDS011;15806;53.548;9.964;2023-08-31T03:42:22;6.20;;;3.30;;
28613;SDS011;15806;53.548;9.964;2023-08-31T03:44:02;9.57;;;3.00;;
28613;SDS011;15806;53.548;9.964;2023-08-31T03:45:43;7.60;;;2.97;;
28613;SDS011;15806;53.548;9.964;2023-08-31T03:47:23;6.40;;;2.40;;
28613;SDS011;15806;53.548;9.964;2023-08-31T03:49:04;9.10;;;3.77;;
28613;SDS011;15806;53.548;9.964;2023-08-31T03:50:48;10.33;;;3.63;;
28613;SDS011;15806;53.548;9.964;2023-08-31T03:52:29;5.78;;;2.40;;
28613;SDS011;15806;53.548;9.964;2023-08-31T03:54:10;6.10;;;2.80;;
28613;SDS011;15806;53.548;9.964;2023-08-31T03:55:50;7.43;;;2.57;;
28613;SDS011;15806;53.548;9.964;2023-08-31T03:57:31;11.27;;;3.10;;
28613;SDS011;15806;53.548;9.964;2023-08-31T03:59:11;6.37;;;2.77;;
28613;SDS011;15806;53.548;9.964;2023-08-31T04:00:52;6.77;;;2.77;;
28613;SDS011;15806;53.548;9.964;2023-08-31T04:02:33;10.00;;;2.90;;
28613;SDS011;15806;53.548;9.964;2023-08-31T04:04:13;4.40;;;2.50;;
28613;SDS011;15806;53.548;9.964;2023-08-31T04:05:54;8.37;;;3.03;;
28613;SDS011;15806;53.548;9.964;2023-08-31T04:07:35;7.40;;;2.72;;
28613;SDS011;15806;53.548;9.964;2023-08-31T04:09:17;4.97;;;2.47;;
28613;SDS011;15806;53.548;9.964;2023-08-31T04:10:57;4.82;;;2.38;;
28613;SDS011;15806;53.548;9.964;2023-08-31T04:12:38;6.73;;;1.97;;
28613;SDS011;15806;53.548;9.964;2023-08-31T04:14:18;10.60;;;3.10;;
28613;SDS011;15806;53.548;9.964;2023-08-31T04:15:59;5.87;;;3.03;;
28613;SDS011;15806;53.548;9.964;2023-08-31T04:17:39;7.67;;;2.63;;
28613;SDS011;15806;53.548;9.964;2023-08-31T04:19:20;6.80;;;2.70;;
28613;SDS011;15806;53.548;9.964;2023-08-31T04:21:01;5.37;;;2.60;;
28613;SDS011;15806;53.548;9.964;2023-08-31T04:22:41;6.40;;;3.60;;
28613;SDS011;15806;53.548;9.964;2023-08-31T04:24:22;8.67;;;3.37;;
28613;SDS011;15806;53.548;9.964;2023-08-31T04:26:09;8.80;;;2.87;;
28613;SDS011;15806;53.548;9.964;2023-08-31T04:27:53;7.47;;;2.47;;
28613;SDS011;15806;53.548;9.964;2023-08-31T04:29:33;8.50;;;2.83;;
28613;SDS011;15806;53.548;9.964;2023-08-31T04:31:14;4.97;;;2.90;;
28613;SDS011;15806;53.548;9.964;2023-08-31T04:32:54;7.73;;;3.00;;
28613;SDS011;15806;53.548;9.964;2023-08-31T04:34:35;10.43;;;3.33;;
28613;SDS011;15806;53.548;9.964;2023-08-31T04:36:15;5.57;;;2.87;;
28613;SDS011;15806;53.548;9.964;2023-08-31T04:37:56;8.30;;;3.47;;
28613;SDS011;15806;53.548;9.964;2023-08-31T04:39:37;6.97;;;2.75;;
28613;SDS011;15806;53.548;9.964;2023-08-31T04:41:18;9.40;;;3.23;;
28613;SDS011;15806;53.548;9.964;2023-08-31T04:42:58;12.33;;;4.40;;
28613;SDS011;15806;53.548;9.964;2023-08-31T04:44:39;9.67;;;2.73;;
28613;SDS011;15806;53.548;9.964;2023-08-31T04:46:19;5.83;;;2.47;;
28613;SDS011;15806;53.548;9.964;2023-08-31T04:48:00;11.73;;;2.77;;
28613;SDS011;15806;53.548;9.964;2023-08-31T04:49:41;4.80;;;2.47;;
28613;SDS011;15806;53.548;9.964;2023-08-31T04:51:31;5.27;;;2.60;;
28613;SDS011;15806;53.548;9.964;2023-08-31T04:53:12;12.23;;;3.17;;
28613;SDS011;15806;53.548;9.964;2023-08-31T04:54:53;5.90;;;2.90;;
28613;SDS011;15806;53.548;9.964;2023-08-31T04:56:33;6.77;;;2.70;;
28613;SDS011;15806;53.548;9.964;2023-08-31T04:58:14;5.87;;;3.17;;
28613;SDS011;15806;53.548;9.964;2023-08-31T04:59:54;7.67;;;3.00;;
28613;SDS011;15806;53.548;9.964;2023-08-31T05:01:35;9.47;;;2.60;;
28613;SDS011;15806;53.548;9.964;2023-08-31T05:03:16;7.33;;;2.43;;
28613;SDS011;15806;53.548;9.964;2023-08-31T05:04:56;6.20;;;2.50;;
28613;SDS011;15806;53.548;9.964;2023-08-31T05:06:38;7.45;;;2.85;;
28613;SDS011;15806;53.548;9.964;2023-08-31T05:08:18;8.40;;;3.07;;
28613;SDS011;15806;53.548;9.964;2023-08-31T05:09:59;7.67;;;3.40;;
28613;SDS011;15806;53.548;9.964;2023-08-31T05:11:40;10.10;;;3.03;;
28613;SDS011;15806;53.548;9.964;2023-08-31T05:13:21;4.30;;;2.90;;
28613;SDS011;15806;53.548;9.964;2023-08-31T05:15:02;5.27;;;2.37;;
28613;SDS011;15806;53.548;9.964;2023-08-31T05:16:42;17.10;;;3.63;;
28613;SDS011;15806;53.548;9.964;2023-08-31T05:18:23;9.97;;;3.43;;
28613;SDS011;15806;53.548;9.964;2023-08-31T05:20:04;8.50;;;2.73;;
28613;SDS011;15806;53.548;9.964;2023-08-31T05:21:45;8.18;;;3.00;;
28613;SDS011;15806;53.548;9.964;2023-08-31T05:23:26;10.20;;;3.00;;
28613;SDS011;15806;53.548;9.964;2023-08-31T05:25:07;5.07;;;2.10;;
28613;SDS011;15806;53.548;9.964;2023-08-31T05:26:48;4.07;;;2.30;;
28613;SDS011;15806;53.548;9.964;2023-08-31T05:28:29;6.00;;;2.35;;
28613;SDS011;15806;53.548;9.964;2023-08-31T05:30:10;9.13;;;3.17;;
28613;SDS011;15806;53.548;9.964;2023-08-31T05:31:51;13.00;;;3.15;;
28613;SDS011;15806;53.548;9.964;2023-08-31T05:33:43;6.18;;;2.67;;
28613;SDS011;15806;53.548;9.964;2023-08-31T05:35:24;10.63;;;2.42;;
28613;SDS011;15806;53.548;9.964;2023-08-31T05:37:09;6.80;;;2.40;;
28613;SDS011;15806;53.548;9.964;2023-08-31T05:38:50;13.52;;;3.22;;
28613;SDS011;15806;53.548;9.964;2023-08-31T05:40:31;6.20;;;2.63;;
28613;SDS011;15806;53.548;9.964;2023-08-31T05:42:20;9.75;;;2.65;;
28613;SDS011;15806;53.548;9.964;2023-08-31T05:44:01;8.33;;;3.47;;
28613;SDS011;15806;53.548;9.964;2023-08-31T05:45:45;13.55;;;3.20;;
28613;SDS011;15806;53.548;9.964;2023-08-31T05:47:26;6.20;;;3.37;;
28613;SDS011;15806;53.548;9.964;2023-08-31T05:51:43;6.28;;;3.47;;
28613;SDS011;15806;53.548;9.964;2023-08-31T05:53:23;3.15;;;2.05;;
28613;SDS011;15806;53.548;9.964;2023-08-31T05:57:05;6.05;;;2.47;;
28613;SDS011;15806;53.548;9.964;2023-08-31T06:02:31;11.82;;;2.70;;
28613;SDS011;15806;53.548;9.964;2023-08-31T06:04:12;4.07;;;2.40;;
28613;SDS011;15806;53.548;9.964;2023-08-31T06:05:53;6.20;;;1.77;;
28613;SDS011;15806;53.548;9.964;2023-08-31T06:07:33;4.97;;;2.93;;
28613;SDS011;15806;53.548;9.964;2023-08-31T06:09:14;5.47;;;2.10;;
28613;SDS011;15806;53.548;9.964;2023-08-31T06:10:55;6.13;;;2.10;;
28613;SDS011;15806;53.548;9.964;2023-08-31T06:12:37;11.07;;;3.33;;
28613;SDS011;15806;53.548;9.964;2023-08-31T06:14:18;5.93;;;2.42;;
28613;SDS011;15806;53.548;9.964;2023-08-31T06:15:58;6.80;;;2.70;;
28613;SDS011;15806;53.548;9.964;2023-08-31T06:17:39;6.63;;;2.93;;
28613;SDS011;15806;53.548;9.964;2023-08-31T06:19:20;5.77;;;2.37;;
28613;SDS011;15806;53.548;9.964;2023-08-31T06:21:00;6.40;;;2.60;;
28613;SDS011;15806;53.548;9.964;2023-08-31T06:22:41;8.77;;;2.37;;
28613;SDS011;15806;53.548;9.964;2023-08-31T06:24:22;7.80;;;2.63;;
28613;SDS011;15806;53.548;9.964;2023-08-31T06:26:02;11.00;;;2.87;;
28613;SDS011;15806;53.548;9.964;2023-08-31T06:27:43;9.73;;;2.27;;
28613;SDS011;15806;53.548;9.964;2023-08-31T06:29:24;6.77;;;2.73;;
28613;SDS011;15806;53.548;9.964;2023-08-31T06:31:04;4.30;;;2.20;;
28613;SDS011;15806;53.548;9.964;2023-08-31T06:32:45;6.30;;;2.30;;
28613;SDS011;15806;53.548;9.964;2023-08-31T06:34:27;7.18;;;2.33;;
28613;SDS011;15806;53.548;9.964;2023-08-31T06:36:08;4.67;;;2.50;;
28613;SDS011;15806;53.548;9.964;2023-08-31T06:37:48;8.37;;;2.33;;
28613;SDS011;15806;53.548;9.964;2023-08-31T06:39:29;6.53;;;1.97;;
28613;SDS011;15806;53.548;9.964;2023-08-31T06:41:29;7.05;;;2.83;;
28613;SDS011;15806;53.548;9.964;2023-08-31T06:43:10;3.60;;;2.00;;
28613;SDS011;15806;53.548;9.964;2023-08-31T06:44:51;3.90;;;2.60;;
28613;SDS011;15806;53.548;9.964;2023-08-31T06:46:31;5.70;;;2.40;;
28613;SDS011;15806;53.548;9.964;2023-08-31T06:48:12;10.00;;;1.63;;
28613;SDS011;15806;53.548;9.964;2023-08-31T06:49:53;4.70;;;2.37;;
28613;SDS011;15806;53.548;9.964;2023-08-31T06:51:33;11.60;;;3.20;;
28613;SDS011;15806;53.548;9.964;2023-08-31T06:53:14;7.57;;;2.07;;
28613;SDS011;15806;53.548;9.964;2023-08-31T06:54:54;5.57;;;2.77;;
28613;SDS011;15806;53.548;9.964;2023-08-31T06:56:35;9.67;;;2.63;;
28613;SDS011;15806;53.548;9.964;2023-08-31T06:58:16;6.70;;;2.22;;
28613;SDS011;15806;53.548;9.964;2023-08-31T07:00:18;6.00;;;2.05;;
28613;SDS011;15806;53.548;9.964;2023-08-31T07:02:02;6.10;;;1.98;;
28613;SDS011;15806;53.548;9.964;2023-08-31T07:03:44;7.95;;;1.90;;
28613;SDS011;15806;53.548;9.964;2023-08-31T07:05:46;5.38;;;1.77;;
28613;SDS011;15806;53.548;9.964;2023-08-31T07:08:08;7.97;;;2.15;;
28613;SDS011;15806;53.548;9.964;2023-08-31T07:10:09;4.53;;;1.60;;
28613;SDS011;15806;53.548;9.964;2023-08-31T07:12:29;3.65;;;1.38;;
28613;SDS011;15806;53.548;9.964;2023-08-31T07:14:10;2.97;;;1.33;;
28613;SDS011;15806;53.548;9.964;2023-08-31T07:15:53;5.90;;;1.70;;
28613;SDS011;15806;53.548;9.964;2023-08-31T07:17:57;3.28;;;1.70;;
28613;SDS011;15806;53.548;9.964;2023-08-31T07:19:38;5.57;;;1.80;;
28613;SDS011;15806;53.548;9.964;2023-08-31T07:21:22;6.25;;;1.80;;
28613;SDS011;15806;53.548;9.964;2023-08-31T07:23:22;2.20;;;1.20;;
28613;SDS011;15806;53.548;9.964;2023-08-31T07:25:02;3.60;;;1.60;;
28613;SDS011;15806;53.548;9.964;2023-08-31T07:28:27;6.43;;;1.42;;
28613;SDS011;15806;53.548;9.964;2023-08-31T07:30:14;2.60;;;1.40;;
28613;SDS011;15806;53.548;9.964;2023-08-31T07:32:04;3.90;;;1.38;;
28613;SDS011;15806;53.548;9.964;2023-08-31T07:33:45;3.85;;;1.52;;
28613;SDS011;15806;53.548;9.964;2023-08-31T07:35:26;4.50;;;1.53;;
28613;SDS011;15806;53.548;9.964;2023-08-31T07:37:07;4.10;;;1.40;;
28613;SDS011;15806;53.548;9.964;2023-08-31T07:38:57;2.47;;;1.47;;
28613;SDS011;15806;53.548;9.964;2023-08-31T07:40:49;1.92;;;1.10;;
28613;SDS011;15806;53.548;9.964;2023-08-31T07:42:35;4.47;;;1.00;;
28613;SDS011;15806;53.548;9.964;2023-08-31T07:44:16;2.47;;;1.05;;
28613;SDS011;15806;53.548;9.964;2023-08-31T07:46:05;4.97;;;1.65;;
28613;SDS011;15806;53.548;9.964;2023-08-31T07:48:04;4.95;;;1.20;;
28613;SDS011;15806;53.548;9.964;2023-08-31T07:49:48;3.25;;;1.20;;
28613;SDS011;15806;53.548;9.964;2023-08-31T07:51:42;3.95;;;1.33;;
28613;SDS011;15806;53.548;9.964;2023-08-31T07:54:27;7.95;;;1.52;;
28613;SDS011;15806;53.548;9.964;2023-08-31T08:00:58;4.60;;;1.40;;
28613;SDS011;15806;53.548;9.964;2023-08-31T08:04:56;3.92;;;1.65;;
28613;SDS011;15806;53.548;9.964;2023-08-31T08:06:42;3.30;;;1.40;;
28613;SDS011;15806;53.548;9.964;2023-08-31T08:08:57;2.58;;;1.38;;
28613;SDS011;15806;53.548;9.964;2023-08-31T08:11:03;5.47;;;1.70;;
28613;SDS011;15806;53.548;9.964;2023-08-31T08:12:45;4.60;;;1.75;;
28613;SDS011;15806;53.548;9.964;2023-08-31T08:14:28;4.53;;;2.40;;
28613;SDS011;15806;53.548;9.964;2023-08-31T08:16:09;2.60;;;1.42;;
28613;SDS011;15806;53.548;9.964;2023-08-31T08:17:50;4.53;;;1.20;;
28613;SDS011;15806;53.548;9.964;2023-08-31T08:19:31;3.45;;;1.40;;
28613;SDS011;15806;53.548;9.964;2023-08-31T08:21:11;3.20;;;1.23;;
28613;SDS011;15806;53.548;9.964;2023-08-31T08:22:52;3.07;;;1.37;;
28613;SDS011;15806;53.548;9.964;2023-08-31T08:24:34;2.43;;;1.33;;
28613;SDS011;15806;53.548;9.964;2023-08-31T08:26:15;4.32;;;1.42;;
28613;SDS011;15806;53.548;9.964;2023-08-31T08:27:56;2.80;;;1.30;;
28613;SDS011;15806;53.548;9.964;2023-08-31T08:29:37;2.40;;;1.30;;
28613;SDS011;15806;53.548;9.964;2023-08-31T08:31:17;4.43;;;1.20;;
28613;SDS011;15806;53.548;9.964;2023-08-31T08:32:58;3.85;;;1.45;;
28613;SDS011;15806;53.548;9.964;2023-08-31T08:34:39;3.00;;;1.27;;
28613;SDS011;15806;53.548;9.964;2023-08-31T08:36:20;3.13;;;1.53;;
28613;SDS011;15806;53.548;9.964;2023-08-31T08:38:01;5.38;;;1.38;;
28613;SDS011;15806;53.548;9.964;2023-08-31T08:39:42;3.47;;;1.47;;
28613;SDS011;15806;53.548;9.964;2023-08-31T08:41:30;1.98;;;1.20;;
28613;SDS011;15806;53.548;9.964;2023-08-31T08:45:24;3.38;;;1.70;;
28613;SDS011;15806;53.548;9.964;2023-08-31T08:47:05;2.50;;;1.05;;
28613;SDS011;15806;53.548;9.964;2023-08-31T08:48:50;5.57;;;1.40;;
28613;SDS011;15806;53.548;9.964;2023-08-31T08:50:32;2.67;;;1.33;;
28613;SDS011;15806;53.548;9.964;2023-08-31T08:52:16;4.78;;;1.67;;
28613;SDS011;15806;53.548;9.964;2023-08-31T08:53:58;4.35;;;1.60;;
28613;SDS011;15806;53.548;9.964;2023-08-31T08:55:42;2.35;;;1.85;;
28613;SDS011;15806;53.548;9.964;2023-08-31T08:57:23;3.55;;;1.52;;
28613;SDS011;15806;53.548;9.964;2023-08-31T08:59:05;5.38;;;1.55;;
28613;SDS011;15806;53.548;9.964;2023-08-31T09:00:46;3.35;;;1.40;;
28613;SDS011;15806;53.548;9.964;2023-08-31T09:02:27;4.30;;;1.75;;
28613;SDS011;15806;53.548;9.964;2023-08-31T09:04:09;5.68;;;1.30;;
28613;SDS011;15806;53.548;9.964;2023-08-31T09:05:50;2.75;;;1.55;;
28613;SDS011;15806;53.548;9.964;2023-08-31T09:07:35;3.05;;;1.70;;
28613;SDS011;15806;53.548;9.964;2023-08-31T09:09:15;4.30;;;1.98;;
28613;SDS011;15806;53.548;9.964;2023-08-31T09:10:56;3.97;;;1.83;;
28613;SDS011;15806;53.548;9.964;2023-08-31T09:12:43;2.80;;;2.00;;
28613;SDS011;15806;53.548;9.964;2023-08-31T09:14:23;5.27;;;2.40;;
28613;SDS011;15806;53.548;9.964;2023-08-31T09:16:04;3.47;;;1.90;;
28613;SDS011;15806;53.548;9.964;2023-08-31T09:17:50;4.97;;;2.10;;
28613;SDS011;15806;53.548;9.964;2023-08-31T09:19:33;6.07;;;1.83;;
28613;SDS011;15806;53.548;9.964;2023-08-31T09:21:18;4.95;;;2.10;;
28613;SDS011;15806;53.548;9.964;2023-08-31T09:22:59;3.30;;;1.80;;
28613;SDS011;15806;53.548;9.964;2023-08-31T09:24:41;5.47;;;1.73;;
28613;SDS011;15806;53.548;9.964;2023-08-31T09:26:22;7.40;;;2.00;;
28613;SDS011;15806;53.548;9.964;2023-08-31T09:29:45;2.53;;;1.70;;
28613;SDS011;15806;53.548;9.964;2023-08-31T09:31:29;4.78;;;1.80;;
28613;SDS011;15806;53.548;9.964;2023-08-31T09:33:13;8.70;;;3.15;;
28613;SDS011;15806;53.548;9.964;2023-08-31T09:34:55;3.10;;;1.52;;
28613;SDS011;15806;53.548;9.964;2023-08-31T09:36:36;3.73;;;1.67;;
28613;SDS011;15806;53.548;9.964;2023-08-31T09:38:18;4.97;;;2.22;;
28613;SDS011;15806;53.548;9.964;2023-08-31T09:40:01;5.20;;;2.55;;
28613;SDS011;15806;53.548;9.964;2023-08-31T09:41:52;6.85;;;2.05;;
28613;SDS011;15806;53.548;9.964;2023-08-31T09:43:34;4.45;;;1.83;;
28613;SDS011;15806;53.548;9.964;2023-08-31T09:45:30;4.25;;;1.50;;
28613;SDS011;15806;53.548;9.964;2023-08-31T09:47:12;4.38;;;2.03;;
28613;SDS011;15806;53.548;9.964;2023-08-31T09:48:55;4.30;;;2.40;;
28613;SDS011;15806;53.548;9.964;2023-08-31T09:50:36;7.43;;;2.05;;
28613;SDS011;15806;53.548;9.964;2023-08-31T09:52:18;4.47;;;1.70;;
28613;SDS011;15806;53.548;9.964;2023-08-31T09:53:59;3.58;;;2.05;;
28613;SDS011;15806;53.548;9.964;2023-08-31T09:55:42;4.65;;;2.08;;
28613;SDS011;15806;53.548;9.964;2023-08-31T09:57:23;5.15;;;2.65;;
28613;SDS011;15806;53.548;9.964;2023-08-31T09:59:05;3.85;;;1.70;;
28613;SDS011;15806;53.548;9.964;2023-08-31T10:00:45;4.73;;;2.13;;
28613;SDS011;15806;53.548;9.964;2023-08-31T10:02:27;4.15;;;2.50;;
28613;SDS011;15806;53.548;9.964;2023-08-31T10:04:10;5.80;;;2.17;;
28613;SDS011;15806;53.548;9.964;2023-08-31T10:05:51;8.50;;;2.00;;
28613;SDS011;15806;53.548;9.964;2023-08-31T10:07:31;3.00;;;1.90;;
28613;SDS011;15806;53.548;9.964;2023-08-31T10:09:12;4.03;;;2.17;;
28613;SDS011;15806;53.548;9.964;2023-08-31T10:12:35;3.90;;;1.65;;
28613;SDS011;15806;53.548;9.964;2023-08-31T10:14:16;7.15;;;2.45;;
28613;SDS011;15806;53.548;9.964;2023-08-31T10:18:02;4.78;;;2.53;;
28613;SDS011;15806;53.548;9.964;2023-08-31T10:19:50;4.75;;;2.22;;
28613;SDS011;15806;53.548;9.964;2023-08-31T10:21:35;4.40;;;1.95;;
28613;SDS011;15806;53.548;9.964;2023-08-31T10:23:20;5.63;;;2.60;;
28613;SDS011;15806;53.548;9.964;2023-08-31T10:28:57;7.07;;;2.83;;
28613;SDS011;15806;53.548;9.964;2023-08-31T10:30:39;7.03;;;3.00;;
28613;SDS011;15806;53.548;9.964;2023-08-31T10:32:20;7.43;;;3.20;;
28613;SDS011;15806;53.548;9.964;2023-08-31T10:34:04;6.50;;;3.13;;
28613;SDS011;15806;53.548;9.964;2023-08-31T10:35:49;7.30;;;2.55;;
28613;SDS011;15806;53.548;9.964;2023-08-31T10:37:31;5.93;;;3.28;;
28613;SDS011;15806;53.548;9.964;2023-08-31T10:39:18;5.13;;;2.80;;
28613;SDS011;15806;53.548;9.964;2023-08-31T10:40:59;7.43;;;3.00;;
28613;SDS011;15806;53.548;9.964;2023-08-31T10:42:46;2.80;;;2.00;;
28613;SDS011;15806;53.548;9.964;2023-08-31T10:44:47;6.72;;;2.97;;
28613;SDS011;15806;53.548;9.964;2023-08-31T10:48:14;3.58;;;2.20;;
28613;SDS011;15806;53.548;9.964;2023-08-31T10:49:57;8.15;;;2.17;;
28613;SDS011;15806;53.548;9.964;2023-08-31T10:52:16;4.47;;;2.28;;
28613;SDS011;15806;53.548;9.964;2023-08-31T10:54:04;3.03;;;1.90;;
28613;SDS011;15806;53.548;9.964;2023-08-31T10:55:54;4.10;;;2.10;;